Time,TemperatureF,DewpointF,PressureIn,WindDirection,WindDirectionDegrees,WindSpeedMPH,WindSpeedGustMPH,Humidity,HourlyPrecipIn,Conditions,Clouds,dailyrainin,SoftwareType,DateUTC
2013-06-27 00:00:00,69.5,66.8,29.78,ESE,107,0.0,0.0,91,0.00,,CLR,0.00,VWS V14.01,2013-06-27 04:00:00,
2013-06-27 00:01:00,69.5,67.1,29.78,ESE,107,0.0,0.0,92,0.00,,CLR,0.00,VWS V14.01,2013-06-27 04:01:00,
2013-06-27 00:06:00,69.5,66.8,29.78,ESE,103,0.0,0.0,91,0.00,,CLR,0.00,VWS V14.01,2013-06-27 04:06:00,
2013-06-27 00:11:00,69.4,66.7,29.79,East,101,0.0,0.0,91,0.00,,CLR,0.00,VWS V14.01,2013-06-27 04:11:00,
2013-06-27 00:16:00,69.3,66.6,29.78,East,101,0.0,0.0,91,0.00,,CLR,0.00,VWS V14.01,2013-06-27 04:16:00,
2013-06-27 00:21:00,69.2,66.8,29.78,East,100,0.0,0.0,92,0.00,,CLR,0.00,VWS V14.01,2013-06-27 04:21:00,
2013-06-27 00:26:00,69.0,66.6,29.78,East,101,0.0,0.0,92,0.00,,CLR,0.00,VWS V14.01,2013-06-27 04:26:00,
2013-06-27 00:31:00,68.9,66.5,29.77,East,87,0.0,0.0,92,0.00,,CLR,0.00,VWS V14.01,2013-06-27 04:31:00,
2013-06-27 00:36:00,68.7,66.3,29.77,East,87,0.0,0.0,92,0.00,,CLR,0.00,VWS V14.01,2013-06-27 04:36:00,
2013-06-27 00:41:00,68.4,66.0,29.78,East,87,0.0,0.0,92,0.00,,CLR,0.00,VWS V14.01,2013-06-27 04:41:00,
2013-06-27 00:46:00,68.3,65.9,29.78,East,87,0.0,0.0,92,0.00,,CLR,0.00,VWS V14.01,2013-06-27 04:46:00,
2013-06-27 00:51:00,68.1,66.0,29.78,ESE,109,0.0,0.0,93,0.00,,CLR,0.00,VWS V14.01,2013-06-27 04:51:00,
2013-06-27 00:56:00,68.0,65.9,29.78,East,94,0.0,0.0,93,0.00,,CLR,0.00,VWS V14.01,2013-06-27 04:56:00,
2013-06-27 01:01:00,67.9,65.8,29.79,East,93,0.0,0.0,93,0.00,,CLR,0.00,VWS V14.01,2013-06-27 05:01:00,
2013-06-27 01:06:00,67.8,66.0,29.79,East,93,0.0,0.0,94,0.00,,CLR,0.00,VWS V14.01,2013-06-27 05:06:00,
2013-06-27 01:11:00,67.7,65.9,29.79,East,94,0.0,0.0,94,0.00,,CLR,0.00,VWS V14.01,2013-06-27 05:11:00,
2013-06-27 01:16:00,67.6,65.8,29.79,East,93,0.0,0.0,94,0.00,,CLR,0.00,VWS V14.01,2013-06-27 05:16:00,
2013-06-27 01:21:00,67.5,65.7,29.78,East,93,0.0,0.0,94,0.00,,CLR,0.00,VWS V14.01,2013-06-27 05:21:00,
2013-06-27 01:26:00,67.5,65.7,29.79,NE,55,0.0,0.0,94,0.00,,CLR,0.00,VWS V14.01,2013-06-27 05:26:00,
2013-06-27 01:31:00,67.4,65.6,29.78,NE,49,0.0,0.0,94,0.00,,CLR,0.00,VWS V14.01,2013-06-27 05:31:00,
2013-06-27 01:36:00,67.3,65.5,29.79,NE,50,0.0,0.0,94,0.00,,CLR,0.00,VWS V14.01,2013-06-27 05:36:00,
2013-06-27 01:41:00,67.2,65.4,29.79,East,96,0.0,0.0,94,0.00,,CLR,0.00,VWS V14.01,2013-06-27 05:41:00,
2013-06-27 01:46:00,67.2,65.4,29.79,East,96,0.0,0.0,94,0.00,,CLR,0.00,VWS V14.01,2013-06-27 05:46:00,
2013-06-27 01:51:00,67.1,65.6,29.79,East,96,0.0,0.0,95,0.00,,CLR,0.00,VWS V14.01,2013-06-27 05:51:00,
2013-06-27 01:56:00,67.1,65.6,29.78,East,96,0.0,0.0,95,0.00,,CLR,0.00,VWS V14.01,2013-06-27 05:56:00,
2013-06-27 02:01:00,67.1,65.6,29.79,NE,56,0.0,0.0,95,0.00,,CLR,0.00,VWS V14.01,2013-06-27 06:01:00,
2013-06-27 02:06:00,67.0,65.5,29.79,NNE,19,0.0,0.0,95,0.00,,CLR,0.00,VWS V14.01,2013-06-27 06:06:00,
2013-06-27 02:11:00,66.9,65.4,29.79,NNE,19,0.0,0.0,95,0.00,,CLR,0.00,VWS V14.01,2013-06-27 06:11:00,
2013-06-27 02:16:00,66.7,65.2,29.79,NNE,19,0.0,0.0,95,0.00,,CLR,0.00,VWS V14.01,2013-06-27 06:16:00,
2013-06-27 02:21:00,66.6,65.1,29.78,NNE,19,0.0,0.0,95,0.00,,CLR,0.00,VWS V14.01,2013-06-27 06:21:00,
2013-06-27 02:26:00,66.5,65.0,29.79,NNE,19,0.0,0.0,95,0.00,,CLR,0.00,VWS V14.01,2013-06-27 06:26:00,
2013-06-27 02:31:00,66.2,64.7,29.78,NNE,19,0.0,0.0,95,0.00,,CLR,0.00,VWS V14.01,2013-06-27 06:31:00,
2013-06-27 02:36:00,66.4,65.2,29.79,WNW,288,0.0,0.0,96,0.00,,CLR,0.00,VWS V14.01,2013-06-27 06:36:00,
2013-06-27 02:41:00,66.6,65.4,29.79,WNW,288,0.0,0.0,96,0.00,,CLR,0.00,VWS V14.01,2013-06-27 06:41:00,
2013-06-27 02:46:00,66.6,65.1,29.78,WNW,288,0.0,0.0,95,0.00,,CLR,0.00,VWS V14.01,2013-06-27 06:46:00,
2013-06-27 02:51:00,66.5,65.0,29.78,WNW,288,0.0,0.0,95,0.00,,CLR,0.00,VWS V14.01,2013-06-27 06:51:00,
2013-06-27 02:56:00,66.3,64.8,29.78,WNW,288,0.0,0.0,95,0.00,,CLR,0.00,VWS V14.01,2013-06-27 06:56:00,
2013-06-27 03:01:00,66.1,64.6,29.77,WNW,288,0.0,0.0,95,0.00,,CLR,0.00,VWS V14.01,2013-06-27 07:01:00,
2013-06-27 03:06:00,65.8,64.3,29.78,WNW,288,0.0,0.0,95,0.00,,CLR,0.00,VWS V14.01,2013-06-27 07:06:00,
2013-06-27 03:11:00,65.8,64.6,29.77,WNW,288,0.0,0.0,96,0.00,,CLR,0.00,VWS V14.01,2013-06-27 07:11:00,
2013-06-27 03:16:00,65.9,64.7,29.77,WNW,288,0.0,0.0,96,0.00,,CLR,0.00,VWS V14.01,2013-06-27 07:16:00,
2013-06-27 03:21:00,65.9,64.7,29.78,WNW,288,0.0,0.0,96,0.00,,CLR,0.00,VWS V14.01,2013-06-27 07:21:00,
2013-06-27 03:26:00,66.0,65.1,29.78,WNW,288,0.0,0.0,97,0.00,,CLR,0.00,VWS V14.01,2013-06-27 07:26:00,
2013-06-27 03:31:00,66.1,64.9,29.78,WNW,288,0.0,0.0,96,0.00,,CLR,0.00,VWS V14.01,2013-06-27 07:31:00,
2013-06-27 03:36:00,66.1,64.9,29.78,WNW,288,0.0,0.0,96,0.00,,CLR,0.00,VWS V14.01,2013-06-27 07:36:00,
2013-06-27 03:41:00,66.1,64.9,29.78,WNW,288,0.0,0.0,96,0.00,,CLR,0.00,VWS V14.01,2013-06-27 07:41:00,
2013-06-27 03:45:00,66.0,65.1,29.78,WNW,288,0.0,0.0,97,0.00,,CLR,0.00,VWS V14.01,2013-06-27 07:45:00,
2013-06-27 03:50:00,66.0,65.1,29.78,WNW,288,0.0,0.0,97,0.00,,CLR,0.00,VWS V14.01,2013-06-27 07:50:00,
2013-06-27 03:55:00,66.1,65.2,29.78,WNW,288,0.0,0.0,97,0.00,,CLR,0.00,VWS V14.01,2013-06-27 07:55:00,
2013-06-27 04:00:00,66.1,65.2,29.78,WNW,288,0.0,0.0,97,0.00,,CLR,0.00,VWS V14.01,2013-06-27 08:00:00,
2013-06-27 04:05:00,66.0,65.1,29.78,WNW,288,0.0,0.0,97,0.00,,CLR,0.00,VWS V14.01,2013-06-27 08:05:00,
2013-06-27 04:10:00,66.0,65.1,29.78,WNW,288,0.0,0.0,97,0.00,,CLR,0.00,VWS V14.01,2013-06-27 08:10:00,
2013-06-27 04:15:00,66.0,65.1,29.78,WNW,283,0.0,0.0,97,0.00,,CLR,0.00,VWS V14.01,2013-06-27 08:15:00,
2013-06-27 04:20:00,66.0,65.1,29.78,WNW,290,0.0,0.0,97,0.00,,CLR,0.00,VWS V14.01,2013-06-27 08:20:00,
2013-06-27 04:25:00,66.1,65.2,29.78,WNW,293,3.0,5.0,97,0.00,,CLR,0.00,VWS V14.01,2013-06-27 08:25:00,
2013-06-27 04:30:00,66.1,65.2,29.78,WNW,290,1.0,2.0,97,0.00,,BKN005,0.00,VWS V14.01,2013-06-27 08:30:00,
2013-06-27 04:35:00,66.0,65.1,29.77,West,274,1.0,5.0,97,0.00,,BKN005,0.00,VWS V14.01,2013-06-27 08:35:00,
2013-06-27 04:40:00,66.1,65.2,29.77,WNW,285,2.0,5.0,97,0.00,,BKN005,0.00,VWS V14.01,2013-06-27 08:40:00,
2013-06-27 04:45:00,66.1,65.2,29.77,WNW,300,1.0,5.0,97,0.00,,BKN005,0.00,VWS V14.01,2013-06-27 08:45:00,
2013-06-27 04:50:00,66.1,65.2,29.77,WNW,289,1.0,5.0,97,0.00,,BKN005,0.00,VWS V14.01,2013-06-27 08:50:00,
2013-06-27 04:55:00,66.1,65.2,29.77,WNW,293,0.0,5.0,97,0.00,,BKN005,0.00,VWS V14.01,2013-06-27 08:55:00,
2013-06-27 05:00:00,66.1,65.2,29.77,WNW,293,2.0,2.0,97,0.00,,OVC005,0.00,VWS V14.01,2013-06-27 09:00:00,
2013-06-27 05:05:00,66.1,65.2,29.77,WNW,291,0.0,3.0,97,0.00,,OVC005,0.00,VWS V14.01,2013-06-27 09:05:00,
2013-06-27 05:10:00,66.1,65.2,29.77,WNW,293,3.0,3.0,97,0.00,,OVC005,0.00,VWS V14.01,2013-06-27 09:10:00,
2013-06-27 05:15:00,66.0,65.1,29.77,West,278,1.0,3.0,97,0.00,,OVC005,0.00,VWS V14.01,2013-06-27 09:15:00,
2013-06-27 05:20:00,66.0,65.1,29.77,West,278,0.0,3.0,97,0.00,,OVC005,0.00,VWS V14.01,2013-06-27 09:20:00,
2013-06-27 05:25:00,65.9,65.0,29.77,West,281,1.0,3.0,97,0.00,,OVC005,0.00,VWS V14.01,2013-06-27 09:25:00,
2013-06-27 05:30:00,65.9,65.0,29.77,West,281,0.0,1.0,97,0.00,,OVC005,0.00,VWS V14.01,2013-06-27 09:30:00,
2013-06-27 05:35:00,65.9,65.0,29.77,West,281,0.0,1.0,97,0.00,,OVC005,0.00,VWS V14.01,2013-06-27 09:35:00,
2013-06-27 05:40:00,65.9,65.0,29.77,West,281,0.0,1.0,97,0.00,,OVC005,0.00,VWS V14.01,2013-06-27 09:40:00,
2013-06-27 05:45:00,66.0,65.4,29.77,West,281,0.0,1.0,98,0.00,,OVC005,0.00,VWS V14.01,2013-06-27 09:45:00,
2013-06-27 05:50:00,66.0,65.4,29.77,West,281,0.0,1.0,98,0.00,,OVC005,0.00,VWS V14.01,2013-06-27 09:50:00,
2013-06-27 05:55:00,66.0,65.4,29.77,West,274,0.0,1.0,98,0.00,,OVC005,0.00,VWS V14.01,2013-06-27 09:55:00,
2013-06-27 06:00:00,66.0,65.4,29.77,West,274,0.0,0.0,98,0.00,,,0.00,VWS V14.01,2013-06-27 10:00:00,
2013-06-27 06:05:00,66.0,65.4,29.76,West,274,0.0,0.0,98,0.00,,,0.00,VWS V14.01,2013-06-27 10:05:00,
2013-06-27 06:10:00,66.0,65.4,29.77,NNW,327,0.0,0.0,98,0.00,,,0.00,VWS V14.01,2013-06-27 10:10:00,
2013-06-27 06:15:00,65.9,65.0,29.77,NNW,328,0.0,0.0,97,0.00,,,0.00,VWS V14.01,2013-06-27 10:15:00,
2013-06-27 06:20:00,65.7,64.8,29.77,NNE,31,0.0,0.0,97,0.00,,,0.00,VWS V14.01,2013-06-27 10:20:00,
2013-06-27 06:25:00,65.7,64.8,29.77,ESE,102,0.0,0.0,97,0.00,,,0.00,VWS V14.01,2013-06-27 10:25:00,
2013-06-27 06:30:00,65.7,64.8,29.77,East,97,0.0,0.0,97,0.00,,,0.00,VWS V14.01,2013-06-27 10:30:00,
2013-06-27 06:35:00,65.8,65.2,29.77,East,97,0.0,0.0,98,0.00,,,0.00,VWS V14.01,2013-06-27 10:35:00,
2013-06-27 06:40:00,65.9,65.3,29.77,ESE,103,0.0,0.0,98,0.00,,,0.00,VWS V14.01,2013-06-27 10:40:00,
2013-06-27 06:45:00,66.0,65.1,29.78,ESE,103,0.0,0.0,97,0.00,,,0.00,VWS V14.01,2013-06-27 10:45:00,
2013-06-27 06:50:00,66.0,65.1,29.78,SW,230,0.0,0.0,97,0.00,,,0.00,VWS V14.01,2013-06-27 10:50:00,
2013-06-27 06:55:00,66.0,65.1,29.78,SW,231,0.0,0.0,97,0.00,,,0.00,VWS V14.01,2013-06-27 10:55:00,
2013-06-27 07:00:00,66.1,65.2,29.78,North,5,0.0,0.0,97,0.00,,,0.00,VWS V14.01,2013-06-27 11:00:00,
2013-06-27 07:05:00,66.3,65.4,29.77,East,95,0.0,0.0,97,0.00,,,0.00,VWS V14.01,2013-06-27 11:05:00,
2013-06-27 07:10:00,66.4,65.5,29.77,East,93,0.0,0.0,97,0.00,,,0.00,VWS V14.01,2013-06-27 11:10:00,
2013-06-27 07:15:00,66.5,65.6,29.77,East,79,0.0,0.0,97,0.00,,,0.00,VWS V14.01,2013-06-27 11:15:00,
2013-06-27 07:20:00,66.4,65.5,29.77,NE,55,0.0,2.0,97,0.00,,,0.00,VWS V14.01,2013-06-27 11:20:00,
2013-06-27 07:25:00,66.5,65.6,29.77,ESE,102,2.0,3.0,97,0.00,,,0.00,VWS V14.01,2013-06-27 11:25:00,
2013-06-27 07:30:00,66.4,65.5,29.77,East,84,2.0,2.0,97,0.00,,,0.00,VWS V14.01,2013-06-27 11:30:00,
2013-06-27 07:35:00,66.3,65.4,29.77,East,89,0.0,2.0,97,0.00,,,0.00,VWS V14.01,2013-06-27 11:35:00,
2013-06-27 07:40:00,66.4,65.5,29.77,East,86,0.0,2.0,97,0.00,,,0.00,VWS V14.01,2013-06-27 11:40:00,
2013-06-27 07:45:00,66.4,65.5,29.77,East,91,0.0,2.0,97,0.00,,,0.00,VWS V14.01,2013-06-27 11:45:00,
2013-06-27 07:50:00,66.6,65.7,29.77,East,91,0.0,2.0,97,0.00,,,0.00,VWS V14.01,2013-06-27 11:50:00,
2013-06-27 07:55:00,66.7,65.8,29.77,East,97,1.0,2.0,97,0.00,,,0.00,VWS V14.01,2013-06-27 11:55:00,
2013-06-27 08:00:00,66.6,65.7,29.76,NE,42,0.0,0.0,97,0.00,,,0.00,VWS V14.01,2013-06-27 12:00:00,
2013-06-27 08:05:00,66.7,65.8,29.76,NE,37,1.0,3.0,97,0.00,,,0.00,VWS V14.01,2013-06-27 12:05:00,
2013-06-27 08:10:00,66.8,65.9,29.76,NE,56,2.0,3.0,97,0.00,,,0.00,VWS V14.01,2013-06-27 12:10:00,
2013-06-27 08:15:00,66.8,65.6,29.75,ENE,65,0.0,3.0,96,0.00,,,0.00,VWS V14.01,2013-06-27 12:15:00,
2013-06-27 08:20:00,66.9,66.0,29.75,NE,34,0.0,3.0,97,0.00,,,0.00,VWS V14.01,2013-06-27 12:20:00,
2013-06-27 08:25:00,67.0,66.1,29.75,NE,49,0.0,3.0,97,0.00,,,0.00,VWS V14.01,2013-06-27 12:25:00,
2013-06-27 08:30:00,67.1,65.9,29.75,SSE,149,1.0,1.0,96,0.00,,,0.00,VWS V14.01,2013-06-27 12:30:00,
2013-06-27 08:35:00,67.3,66.1,29.75,ENE,68,2.0,2.0,96,0.00,,,0.00,VWS V14.01,2013-06-27 12:35:00,
2013-06-27 08:40:00,67.7,66.5,29.75,NE,41,0.0,2.0,96,0.00,,,0.00,VWS V14.01,2013-06-27 12:40:00,
2013-06-27 08:45:00,67.9,66.7,29.75,East,82,0.0,3.0,96,0.00,,,0.00,VWS V14.01,2013-06-27 12:45:00,
2013-06-27 08:50:00,68.4,67.2,29.75,East,82,0.0,3.0,96,0.00,,,0.00,VWS V14.01,2013-06-27 12:50:00,
2013-06-27 08:55:00,69.0,67.5,29.75,NE,41,0.0,3.0,95,0.00,,,0.00,VWS V14.01,2013-06-27 12:55:00,
2013-06-27 09:00:00,69.6,67.8,29.75,SE,141,0.0,3.0,94,0.00,,,0.00,VWS V14.01,2013-06-27 13:00:00,
2013-06-27 09:05:00,69.8,67.7,29.75,East,91,0.0,3.0,93,0.00,,,0.00,VWS V14.01,2013-06-27 13:05:00,
2013-06-27 09:10:00,70.5,68.4,29.75,East,91,1.0,3.0,93,0.00,,,0.00,VWS V14.01,2013-06-27 13:10:00,
2013-06-27 09:15:00,70.5,67.8,29.75,ESE,105,1.0,4.0,91,0.00,,,0.00,VWS V14.01,2013-06-27 13:15:00,
2013-06-27 09:20:00,70.8,68.1,29.75,SSE,156,1.0,4.0,91,0.00,,,0.00,VWS V14.01,2013-06-27 13:20:00,
2013-06-27 09:25:00,71.1,68.0,29.74,East,91,3.0,4.0,90,0.00,,,0.00,VWS V14.01,2013-06-27 13:25:00,
2013-06-27 09:30:00,71.3,68.2,29.74,ESE,102,2.0,4.0,90,0.00,,,0.00,VWS V14.01,2013-06-27 13:30:00,
2013-06-27 09:35:00,71.2,67.8,29.74,SE,141,0.0,4.0,89,0.00,,,0.00,VWS V14.01,2013-06-27 13:35:00,
2013-06-27 09:40:00,71.7,68.3,29.74,ESE,108,3.0,4.0,89,0.00,,,0.00,VWS V14.01,2013-06-27 13:40:00,
2013-06-27 09:45:00,72.1,68.7,29.74,South,180,0.0,4.0,89,0.00,,,0.00,VWS V14.01,2013-06-27 13:45:00,
2013-06-27 09:50:00,72.9,68.8,29.74,NE,39,0.0,4.0,87,0.00,,,0.00,VWS V14.01,2013-06-27 13:50:00,
2013-06-27 09:55:00,73.3,68.9,29.73,ESE,105,2.0,4.0,86,0.00,,,0.00,VWS V14.01,2013-06-27 13:55:00,
2013-06-27 10:00:00,73.5,69.1,29.73,SW,222,2.0,4.0,86,0.00,,,0.00,VWS V14.01,2013-06-27 14:00:00,
2013-06-27 10:05:00,73.8,69.0,29.73,SW,228,2.0,3.0,85,0.00,,,0.00,VWS V14.01,2013-06-27 14:05:00,
2013-06-27 10:10:00,74.5,69.7,29.73,ENE,72,2.0,3.0,85,0.00,,,0.00,VWS V14.01,2013-06-27 14:10:00,
2013-06-27 10:15:00,75.4,69.9,29.74,ESE,108,0.0,3.0,83,0.00,,,0.00,VWS V14.01,2013-06-27 14:15:00,
2013-06-27 10:20:00,76.0,70.1,29.73,SE,129,0.0,3.0,82,0.00,,,0.00,VWS V14.01,2013-06-27 14:20:00,
2013-06-27 10:25:00,76.5,69.5,29.73,ESE,104,2.0,4.0,79,0.00,,,0.00,VWS V14.01,2013-06-27 14:25:00,
2013-06-27 10:30:00,76.3,69.3,29.73,ESE,115,0.0,4.0,79,0.00,,,0.00,VWS V14.01,2013-06-27 14:30:00,
2013-06-27 10:35:00,76.7,69.7,29.73,SW,225,1.0,2.0,79,0.00,,,0.00,VWS V14.01,2013-06-27 14:35:00,
2013-06-27 10:40:00,77.0,70.4,29.73,East,89,0.0,5.0,80,0.00,,,0.00,VWS V14.01,2013-06-27 14:40:00,
2013-06-27 10:45:00,77.4,70.0,29.73,ENE,58,0.0,5.0,78,0.00,,,0.00,VWS V14.01,2013-06-27 14:45:00,
2013-06-27 10:50:00,77.9,70.5,29.73,NE,34,2.0,5.0,78,0.00,,,0.00,VWS V14.01,2013-06-27 14:50:00,
2013-06-27 10:55:00,77.9,69.7,29.72,ESE,115,3.0,5.0,76,0.00,,,0.00,VWS V14.01,2013-06-27 14:55:00,
2013-06-27 11:00:00,77.9,70.5,29.72,East,84,0.0,5.0,78,0.00,,,0.00,VWS V14.01,2013-06-27 15:00:00,
2013-06-27 11:05:00,78.7,70.9,29.72,East,94,1.0,3.0,77,0.00,,,0.00,VWS V14.01,2013-06-27 15:05:00,
2013-06-27 11:10:00,79.1,70.5,29.72,SW,229,2.0,3.0,75,0.00,,,0.00,VWS V14.01,2013-06-27 15:10:00,
2013-06-27 11:15:00,79.9,71.3,29.72,ESE,104,2.0,3.0,75,0.00,,,0.00,VWS V14.01,2013-06-27 15:15:00,
2013-06-27 11:20:00,80.6,71.2,29.71,SW,231,1.0,4.0,73,0.00,,,0.00,VWS V14.01,2013-06-27 15:20:00,
2013-06-27 11:25:00,80.9,70.2,29.71,East,86,3.0,4.0,70,0.00,,,0.00,VWS V14.01,2013-06-27 15:25:00,
2013-06-27 11:30:00,80.9,70.2,29.71,ESE,104,1.0,4.0,70,0.00,,,0.00,VWS V14.01,2013-06-27 15:30:00,
2013-06-27 11:35:00,81.4,70.3,29.71,East,98,1.0,3.0,69,0.00,,,0.00,VWS V14.01,2013-06-27 15:35:00,
2013-06-27 11:40:00,81.6,70.4,29.71,East,84,1.0,5.0,69,0.00,,,0.00,VWS V14.01,2013-06-27 15:40:00,
2013-06-27 11:45:00,82.0,70.8,29.70,NNE,30,2.0,5.0,69,0.00,,,0.00,VWS V14.01,2013-06-27 15:45:00,
2013-06-27 11:50:00,81.6,69.6,29.70,East,84,2.0,5.0,67,0.00,,,0.00,VWS V14.01,2013-06-27 15:50:00,
2013-06-27 11:55:00,81.4,70.3,29.70,East,79,4.0,6.0,69,0.00,,,0.00,VWS V14.01,2013-06-27 15:55:00,
2013-06-27 12:00:00,81.6,70.9,29.70,ESE,108,5.0,6.0,70,0.00,,CLR,0.00,VWS V14.01,2013-06-27 16:00:00,
2013-06-27 12:05:00,82.2,70.6,29.70,East,91,1.0,4.0,68,0.00,,CLR,0.00,VWS V14.01,2013-06-27 16:05:00,
2013-06-27 12:10:00,82.6,70.1,29.69,NE,56,2.0,4.0,66,0.00,,CLR,0.00,VWS V14.01,2013-06-27 16:10:00,
2013-06-27 12:15:00,82.7,69.3,29.70,NW,311,1.0,6.0,64,0.00,,CLR,0.00,VWS V14.01,2013-06-27 16:15:00,
2013-06-27 12:20:00,82.6,69.2,29.69,SW,229,1.0,6.0,64,0.00,,CLR,0.00,VWS V14.01,2013-06-27 16:20:00,
2013-06-27 12:25:00,82.4,69.0,29.69,ENE,71,1.0,6.0,64,0.00,,CLR,0.00,VWS V14.01,2013-06-27 16:25:00,
2013-06-27 12:30:00,82.7,69.3,29.69,ENE,73,3.0,6.0,64,0.00,,CLR,0.00,VWS V14.01,2013-06-27 16:30:00,
2013-06-27 12:35:00,82.5,69.6,29.69,South,183,1.0,4.0,65,0.00,,CLR,0.00,VWS V14.01,2013-06-27 16:35:00,
2013-06-27 12:40:00,82.5,70.0,29.69,ESE,104,2.0,4.0,66,0.00,,CLR,0.00,VWS V14.01,2013-06-27 16:40:00,
2013-06-27 12:45:00,82.6,70.1,29.69,ENE,63,0.0,4.0,66,0.00,,CLR,0.00,VWS V14.01,2013-06-27 16:45:00,
2013-06-27 12:50:00,83.1,70.6,29.68,East,94,1.0,4.0,66,0.00,,CLR,0.00,VWS V14.01,2013-06-27 16:50:00,
2013-06-27 12:55:00,83.7,69.8,29.68,ENE,66,1.0,4.0,63,0.00,,CLR,0.00,VWS V14.01,2013-06-27 16:55:00,
2013-06-27 13:00:00,83.8,68.9,29.68,South,180,1.0,4.0,61,0.00,,OVC150,0.00,VWS V14.01,2013-06-27 17:00:00,
2013-06-27 13:05:00,83.6,69.2,29.67,SW,226,0.0,7.0,62,0.00,,OVC150,0.00,VWS V14.01,2013-06-27 17:05:00,
2013-06-27 13:10:00,83.4,69.5,29.67,South,186,0.0,7.0,63,0.00,,OVC150,0.00,VWS V14.01,2013-06-27 17:10:00,
2013-06-27 13:15:00,83.4,69.0,29.67,SSW,207,1.0,7.0,62,0.00,,OVC150,0.00,VWS V14.01,2013-06-27 17:15:00,
2013-06-27 13:20:00,82.9,69.0,29.67,SW,231,2.0,7.0,63,0.00,,OVC150,0.00,VWS V14.01,2013-06-27 17:20:00,
2013-06-27 13:25:00,83.0,69.1,29.67,West,264,0.0,7.0,63,0.00,,OVC150,0.00,VWS V14.01,2013-06-27 17:25:00,
2013-06-27 13:30:00,83.0,69.6,29.67,NE,51,1.0,7.0,64,0.00,,OVC150,0.00,VWS V14.01,2013-06-27 17:30:00,
2013-06-27 13:35:00,82.5,69.1,29.67,SE,142,2.0,6.0,64,0.00,,OVC150,0.00,VWS V14.01,2013-06-27 17:35:00,
2013-06-27 13:40:00,82.6,69.7,29.67,East,88,0.0,6.0,65,0.00,,OVC150,0.00,VWS V14.01,2013-06-27 17:40:00,
2013-06-27 13:45:00,82.3,69.4,29.66,SW,236,0.0,6.0,65,0.00,,OVC150,0.00,VWS V14.01,2013-06-27 17:45:00,
2013-06-27 13:50:00,81.9,69.0,29.66,SW,228,0.0,6.0,65,0.00,,OVC150,0.00,VWS V14.01,2013-06-27 17:50:00,
2013-06-27 13:55:00,81.9,69.0,29.66,ESE,103,2.0,6.0,65,0.00,,OVC150,0.00,VWS V14.01,2013-06-27 17:55:00,
2013-06-27 14:00:00,81.4,69.4,29.66,East,89,3.0,6.0,67,0.00,,OVC150,0.00,VWS V14.01,2013-06-27 18:00:00,
2013-06-27 14:05:00,81.2,69.6,29.66,ENE,76,2.0,3.0,68,0.00,,OVC150,0.00,VWS V14.01,2013-06-27 18:05:00,
2013-06-27 14:10:00,81.1,69.6,29.65,East,88,0.0,3.0,68,0.00,,OVC150,0.00,VWS V14.01,2013-06-27 18:10:00,
2013-06-27 14:15:00,81.2,69.2,29.65,East,83,0.0,3.0,67,0.00,,OVC150,0.00,VWS V14.01,2013-06-27 18:15:00,
2013-06-27 14:20:00,81.4,69.8,29.65,East,101,0.0,3.0,68,0.00,,OVC150,0.00,VWS V14.01,2013-06-27 18:20:00,
2013-06-27 14:25:00,81.2,70.1,29.65,East,82,0.0,3.0,69,0.00,,OVC150,0.00,VWS V14.01,2013-06-27 18:25:00,
2013-06-27 14:30:00,81.1,69.6,29.65,ESE,109,0.0,3.0,68,0.00,,OVC150,0.00,VWS V14.01,2013-06-27 18:30:00,
2013-06-27 14:35:00,80.9,69.8,29.65,ENE,72,0.0,0.0,69,0.00,,OVC150,0.00,VWS V14.01,2013-06-27 18:35:00,
2013-06-27 14:40:00,80.7,70.0,29.64,WSW,239,0.0,0.0,70,0.00,,OVC150,0.00,VWS V14.01,2013-06-27 18:40:00,
2013-06-27 14:45:00,80.5,69.8,29.64,ESE,104,0.0,0.0,70,0.00,,OVC150,0.00,VWS V14.01,2013-06-27 18:45:00,
2013-06-27 14:50:00,80.5,71.1,29.64,ENE,74,0.0,0.0,73,0.00,,OVC150,0.00,VWS V14.01,2013-06-27 18:50:00,
2013-06-27 14:55:00,80.1,71.9,29.65,SW,233,1.0,4.0,76,0.00,,OVC150,0.00,VWS V14.01,2013-06-27 18:55:00,
2013-06-27 15:00:00,78.9,71.8,29.65,WSW,240,3.0,4.0,79,0.01,, +RA,0.01,VWS V14.01,2013-06-27 19:00:00,
2013-06-27 15:05:00,77.7,71.4,29.65,WSW,245,0.0,2.0,81,0.03,, +RA,0.03,VWS V14.01,2013-06-27 19:05:00,
2013-06-27 15:10:00,76.5,71.3,29.65,SW,217,1.0,3.0,84,0.06,, +RA,0.06,VWS V14.01,2013-06-27 19:10:00,
2013-06-27 15:15:00,75.8,71.7,29.65,SW,214,0.0,3.0,87,0.08,, +RA,0.08,VWS V14.01,2013-06-27 19:15:00,
2013-06-27 15:20:00,75.3,71.5,29.65,SSW,204,0.0,3.0,88,0.09,, +RA,0.09,VWS V14.01,2013-06-27 19:20:00,
2013-06-27 15:25:00,75.0,71.5,29.64,SSW,204,0.0,3.0,89,0.10,, +RA,0.10,VWS V14.01,2013-06-27 19:25:00,
2013-06-27 15:30:00,74.7,71.2,29.64,East,89,0.0,3.0,89,0.11,, +RA,0.11,VWS V14.01,2013-06-27 19:30:00,
2013-06-27 15:35:00,74.2,70.4,29.64,East,89,0.0,0.0,88,0.12,, +RA,0.12,VWS V14.01,2013-06-27 19:35:00,
2013-06-27 15:40:00,74.0,70.2,29.64,East,89,0.0,0.0,88,0.12,, +RA,0.12,VWS V14.01,2013-06-27 19:40:00,
2013-06-27 15:45:00,73.9,70.1,29.63,East,89,0.0,0.0,88,0.13,, +RA,0.13,VWS V14.01,2013-06-27 19:45:00,
2013-06-27 15:50:00,74.0,70.6,29.63,SW,225,1.0,1.0,89,0.14,, +RA,0.14,VWS V14.01,2013-06-27 19:50:00,
2013-06-27 15:55:00,73.8,70.7,29.64,WSW,250,2.0,2.0,90,0.14,, +RA,0.14,VWS V14.01,2013-06-27 19:55:00,
2013-06-27 16:00:00,73.3,70.5,29.63,SW,232,1.0,3.0,91,0.15,,,0.15,VWS V14.01,2013-06-27 20:00:00,
2013-06-27 16:05:00,72.9,70.1,29.63,SW,232,0.0,2.0,91,0.14,,,0.15,VWS V14.01,2013-06-27 20:05:00,
2013-06-27 16:10:00,72.8,70.3,29.62,SW,233,0.0,2.0,92,0.14,,,0.15,VWS V14.01,2013-06-27 20:10:00,
2013-06-27 16:15:00,72.7,70.2,29.62,SW,232,0.0,2.0,92,0.15,,,0.16,VWS V14.01,2013-06-27 20:15:00,
2013-06-27 16:20:00,72.6,70.2,29.62,SW,232,0.0,2.0,92,0.16,,,0.17,VWS V14.01,2013-06-27 20:20:00,
2013-06-27 16:25:00,72.7,70.6,29.62,SW,232,0.0,2.0,93,0.16,,,0.17,VWS V14.01,2013-06-27 20:25:00,
2013-06-27 16:30:00,72.7,70.6,29.62,SW,232,0.0,2.0,93,0.17,,,0.18,VWS V14.01,2013-06-27 20:30:00,
2013-06-27 16:35:00,72.7,70.6,29.62,SW,222,0.0,0.0,93,0.08,,,0.19,VWS V14.01,2013-06-27 20:35:00,
2013-06-27 16:40:00,72.7,70.9,29.62,SW,222,0.0,0.0,94,0.09,,,0.20,VWS V14.01,2013-06-27 20:40:00,
2013-06-27 16:45:00,72.7,70.9,29.61,SW,222,0.0,0.0,94,0.11,,,0.22,VWS V14.01,2013-06-27 20:45:00,
2013-06-27 16:50:00,72.6,70.8,29.61,ESE,123,0.0,0.0,94,0.13,,,0.24,VWS V14.01,2013-06-27 20:50:00,
2013-06-27 16:55:00,72.6,70.8,29.61,SW,222,0.0,0.0,94,0.16,,,0.27,VWS V14.01,2013-06-27 20:55:00,
2013-06-27 17:00:00,72.6,70.8,29.61,SW,222,0.0,0.0,94,0.15,,RA,0.30,VWS V14.01,2013-06-27 21:00:00,
2013-06-27 17:05:00,72.6,71.1,29.61,SW,221,0.0,0.0,95,0.17,,RA,0.32,VWS V14.01,2013-06-27 21:05:00,
2013-06-27 17:10:00,72.7,71.2,29.60,ENE,78,0.0,1.0,95,0.19,,RA,0.34,VWS V14.01,2013-06-27 21:10:00,
2013-06-27 17:15:00,72.7,71.2,29.60,ESE,105,0.0,3.0,95,0.20,,RA,0.35,VWS V14.01,2013-06-27 21:15:00,
2013-06-27 17:20:00,72.7,71.2,29.60,ESE,109,0.0,3.0,95,0.21,,RA,0.36,VWS V14.01,2013-06-27 21:20:00,
2013-06-27 17:25:00,72.8,71.3,29.60,East,101,1.0,3.0,95,0.23,,RA,0.38,VWS V14.01,2013-06-27 21:25:00,
2013-06-27 17:30:00,72.8,71.3,29.59,East,91,0.0,0.0,95,0.21,,RA,0.39,VWS V14.01,2013-06-27 21:30:00,
2013-06-27 17:35:00,72.7,71.5,29.59,East,92,0.0,1.0,96,0.24,,RA,0.42,VWS V14.01,2013-06-27 21:35:00,
2013-06-27 17:41:00,72.8,71.6,29.59,East,92,0.0,1.0,96,0.26,,RA,0.44,VWS V14.01,2013-06-27 21:41:00,
2013-06-27 17:46:00,72.7,71.5,29.59,East,91,0.0,1.0,96,0.28,,RA,0.46,VWS V14.01,2013-06-27 21:46:00,
2013-06-27 17:51:00,72.8,71.6,29.58,East,92,0.0,1.0,96,0.30,,RA,0.48,VWS V14.01,2013-06-27 21:51:00,
2013-06-27 17:56:00,72.9,71.7,29.58,East,89,1.0,3.0,96,0.31,,RA,0.49,VWS V14.01,2013-06-27 21:56:00,
2013-06-27 18:01:00,72.8,71.6,29.58,East,87,0.0,2.0,96,0.20,,RA,0.50,VWS V14.01,2013-06-27 22:01:00,
2013-06-27 18:06:00,72.9,71.7,29.57,ESE,105,0.0,4.0,96,0.21,,RA,0.51,VWS V14.01,2013-06-27 22:06:00,
2013-06-27 18:11:00,72.9,72.0,29.57,ESE,105,2.0,4.0,97,0.22,,RA,0.52,VWS V14.01,2013-06-27 22:11:00,
2013-06-27 18:16:00,72.9,71.7,29.57,SE,124,2.0,4.0,96,0.22,,RA,0.52,VWS V14.01,2013-06-27 22:16:00,
2013-06-27 18:21:00,73.0,72.1,29.56,ESE,117,3.0,5.0,97,0.22,,RA,0.52,VWS V14.01,2013-06-27 22:21:00,
2013-06-27 18:26:00,73.0,71.8,29.56,SE,134,1.0,5.0,96,0.22,,RA,0.52,VWS V14.01,2013-06-27 22:26:00,
2013-06-27 18:31:00,73.0,71.8,29.56,ENE,62,1.0,2.0,96,0.13,,RA,0.52,VWS V14.01,2013-06-27 22:31:00,
2013-06-27 18:36:00,72.9,71.7,29.56,East,100,1.0,4.0,96,0.14,,RA,0.53,VWS V14.01,2013-06-27 22:36:00,
2013-06-27 18:41:00,72.9,71.7,29.56,ESE,119,0.0,4.0,96,0.14,,RA,0.53,VWS V14.01,2013-06-27 22:41:00,
2013-06-27 18:46:00,72.8,71.6,29.56,East,82,1.0,4.0,96,0.14,,RA,0.53,VWS V14.01,2013-06-27 22:46:00,
2013-06-27 18:52:00,72.9,71.7,29.56,East,84,2.0,4.0,96,0.14,,RA,0.53,VWS V14.01,2013-06-27 22:52:00,
2013-06-27 18:57:00,72.7,71.5,29.55,East,91,2.0,4.0,96,0.14,,RA,0.53,VWS V14.01,2013-06-27 22:57:00,
2013-06-27 19:02:00,72.7,71.5,29.55,ESE,102,0.0,2.0,96,0.03,,,0.53,VWS V14.01,2013-06-27 23:02:00,
2013-06-27 19:07:00,72.7,71.5,29.55,ESE,105,1.0,5.0,96,0.03,,,0.53,VWS V14.01,2013-06-27 23:07:00,
2013-06-27 19:12:00,72.7,71.5,29.55,ENE,63,2.0,5.0,96,0.03,,,0.53,VWS V14.01,2013-06-27 23:12:00,
2013-06-27 19:17:00,72.8,71.6,29.55,ESE,104,2.0,5.0,96,0.03,,,0.53,VWS V14.01,2013-06-27 23:17:00,
2013-06-27 19:22:00,72.9,71.7,29.55,East,84,1.0,5.0,96,0.03,,,0.53,VWS V14.01,2013-06-27 23:22:00,
2013-06-27 19:27:00,72.9,71.7,29.55,East,89,1.0,5.0,96,0.03,,,0.53,VWS V14.01,2013-06-27 23:27:00,
2013-06-27 19:32:00,72.8,71.6,29.55,ESE,104,2.0,4.0,96,0.01,,,0.53,VWS V14.01,2013-06-27 23:32:00,
2013-06-27 19:37:00,72.7,71.5,29.55,ESE,104,3.0,6.0,96,0.01,,,0.53,VWS V14.01,2013-06-27 23:37:00,
2013-06-27 19:42:00,72.7,71.5,29.55,ESE,102,0.0,6.0,96,0.01,,,0.53,VWS V14.01,2013-06-27 23:42:00,
2013-06-27 19:47:00,72.6,71.4,29.55,East,84,0.0,6.0,96,0.01,,,0.53,VWS V14.01,2013-06-27 23:47:00,
2013-06-27 19:52:00,72.6,71.4,29.55,East,85,1.0,6.0,96,0.01,,,0.53,VWS V14.01,2013-06-27 23:52:00,
2013-06-27 19:57:00,72.6,71.4,29.55,ESE,120,0.0,6.0,96,0.02,,,0.54,VWS V14.01,2013-06-27 23:57:00,
2013-06-27 20:03:00,72.5,71.3,29.55,East,93,0.0,0.0,96,0.03,,-RA,0.56,VWS V14.01,2013-06-28 00:03:00,
2013-06-27 20:07:00,72.4,71.2,29.55,East,94,0.0,0.0,96,0.06,,-RA,0.59,VWS V14.01,2013-06-28 00:07:00,
2013-06-27 20:13:00,72.4,71.2,29.55,North,9,0.0,2.0,96,0.10,,-RA,0.63,VWS V14.01,2013-06-28 00:13:00,
2013-06-27 20:18:00,72.1,70.9,29.55,WNW,302,0.0,2.0,96,0.11,,-RA,0.64,VWS V14.01,2013-06-28 00:18:00,
2013-06-27 20:23:00,71.8,70.6,29.55,NW,322,0.0,2.0,96,0.14,,-RA,0.67,VWS V14.01,2013-06-28 00:23:00,
2013-06-27 20:28:00,71.6,70.4,29.55,NW,322,0.0,2.0,96,0.20,,-RA,0.73,VWS V14.01,2013-06-28 00:28:00,
2013-06-27 20:33:00,71.4,70.5,29.56,NW,322,0.0,0.0,97,0.25,,-RA,0.78,VWS V14.01,2013-06-28 00:33:00,
2013-06-27 20:38:00,71.2,70.3,29.56,WNW,284,0.0,1.0,97,0.27,,-RA,0.80,VWS V14.01,2013-06-28 00:38:00,
2013-06-27 20:44:00,71.1,70.5,29.56,North,6,1.0,1.0,98,0.30,,-RA,0.83,VWS V14.01,2013-06-28 00:44:00,
2013-06-27 20:49:00,71.0,70.4,29.55,North,5,0.0,1.0,98,0.33,,-RA,0.86,VWS V14.01,2013-06-28 00:49:00,
2013-06-27 20:54:00,70.6,69.7,29.55,North,1,0.0,2.0,97,0.36,,-RA,0.89,VWS V14.01,2013-06-28 00:54:00,
2013-06-27 20:59:00,70.4,69.8,29.55,NE,49,1.0,2.0,98,0.39,,-RA,0.92,VWS V14.01,2013-06-28 00:59:00,
2013-06-27 21:04:00,70.2,69.6,29.55,NE,47,0.0,0.0,98,0.39,, +RA,0.94,VWS V14.01,2013-06-28 01:04:00,
2013-06-27 21:09:00,70.1,69.5,29.55,NE,49,0.0,0.0,98,0.43,, +RA,0.98,VWS V14.01,2013-06-28 01:09:00,
2013-06-27 21:14:00,70.0,69.4,29.55,North,360,0.0,0.0,98,0.45,, +RA,1.00,VWS V14.01,2013-06-28 01:14:00,
2013-06-27 21:19:00,69.8,69.2,29.55,WSW,253,0.0,0.0,98,0.46,, +RA,1.01,VWS V14.01,2013-06-28 01:19:00,
2013-06-27 21:24:00,69.7,69.1,29.55,WSW,253,0.0,0.0,98,0.47,, +RA,1.02,VWS V14.01,2013-06-28 01:24:00,
2013-06-27 21:29:00,69.5,68.9,29.55,WSW,253,0.0,0.0,98,0.48,, +RA,1.03,VWS V14.01,2013-06-28 01:29:00,
2013-06-27 21:34:00,69.5,68.9,29.55,WSW,253,0.0,0.0,98,0.27,, +RA,1.03,VWS V14.01,2013-06-28 01:34:00,
2013-06-27 21:39:00,69.6,69.3,29.55,WSW,253,1.0,1.0,99,0.27,, +RA,1.03,VWS V14.01,2013-06-28 01:39:00,
2013-06-27 21:44:00,69.6,69.3,29.55,West,273,0.0,2.0,99,0.27,, +RA,1.03,VWS V14.01,2013-06-28 01:44:00,
2013-06-27 21:49:00,69.6,69.3,29.55,West,280,1.0,2.0,99,0.27,, +RA,1.03,VWS V14.01,2013-06-28 01:49:00,
2013-06-27 21:54:00,69.5,69.2,29.55,West,276,1.0,2.0,99,0.28,, +RA,1.04,VWS V14.01,2013-06-28 01:54:00,
2013-06-27 21:59:00,69.5,69.2,29.55,West,276,0.0,2.0,99,0.28,, +RA,1.04,VWS V14.01,2013-06-28 01:59:00,
2013-06-27 22:04:00,69.5,69.2,29.55,West,276,0.0,0.0,99,0.12,, +RA,1.04,VWS V14.01,2013-06-28 02:04:00,
2013-06-27 22:10:00,69.5,69.2,29.55,West,280,0.0,1.0,99,0.12,, +RA,1.04,VWS V14.01,2013-06-28 02:10:00,
2013-06-27 22:15:00,69.5,69.2,29.55,WNW,285,0.0,2.0,99,0.12,, +RA,1.04,VWS V14.01,2013-06-28 02:15:00,
2013-06-27 22:20:00,69.6,69.3,29.55,WNW,285,0.0,2.0,99,0.13,, +RA,1.05,VWS V14.01,2013-06-28 02:20:00,
2013-06-27 22:25:00,69.6,69.3,29.55,West,278,1.0,2.0,99,0.13,, +RA,1.05,VWS V14.01,2013-06-28 02:25:00,
2013-06-27 22:30:00,69.6,69.3,29.55,WNW,293,1.0,3.0,99,0.13,,RA,1.05,VWS V14.01,2013-06-28 02:30:00,
2013-06-27 22:35:00,69.6,69.3,29.54,WNW,287,0.0,2.0,99,0.02,,RA,1.05,VWS V14.01,2013-06-28 02:35:00,
2013-06-27 22:40:00,69.6,69.3,29.54,WNW,287,0.0,2.0,99,0.02,,RA,1.05,VWS V14.01,2013-06-28 02:40:00,
2013-06-27 22:45:00,69.5,69.2,29.54,WNW,286,1.0,2.0,99,0.02,,RA,1.05,VWS V14.01,2013-06-28 02:45:00,
2013-06-27 22:50:00,69.4,69.1,29.53,WNW,287,0.0,2.0,99,0.02,,RA,1.05,VWS V14.01,2013-06-28 02:50:00,
2013-06-27 22:55:00,69.4,69.1,29.53,WNW,286,0.0,2.0,99,0.02,,RA,1.05,VWS V14.01,2013-06-28 02:55:00,
2013-06-27 23:00:00,69.4,69.1,29.54,WNW,287,0.0,2.0,99,0.02,,-RA,1.05,VWS V14.01,2013-06-28 03:00:00,
2013-06-27 23:05:00,69.4,69.1,29.53,WNW,287,0.0,1.0,99,0.01,,-RA,1.05,VWS V14.01,2013-06-28 03:05:00,
2013-06-27 23:10:00,69.4,69.1,29.53,West,281,0.0,2.0,99,0.01,,-RA,1.05,VWS V14.01,2013-06-28 03:10:00,
2013-06-27 23:16:00,69.4,69.1,29.54,WNW,293,2.0,5.0,99,0.01,,-RA,1.05,VWS V14.01,2013-06-28 03:16:00,
2013-06-27 23:21:00,69.4,69.1,29.53,WNW,288,1.0,5.0,99,0.01,,-RA,1.05,VWS V14.01,2013-06-28 03:21:00,
2013-06-27 23:26:00,69.4,69.1,29.53,WNW,288,1.0,5.0,99,0.01,,-RA,1.05,VWS V14.01,2013-06-28 03:26:00,
2013-06-27 23:31:00,69.3,69.0,29.54,WNW,285,3.0,3.0,99,0.00,,-RA,1.05,VWS V14.01,2013-06-28 03:31:00,
2013-06-27 23:36:00,69.3,69.0,29.54,West,281,2.0,5.0,99,0.00,,-RA,1.05,VWS V14.01,2013-06-28 03:36:00,
2013-06-27 23:41:00,69.2,68.9,29.54,WNW,290,3.0,5.0,99,0.00,,-RA,1.05,VWS V14.01,2013-06-28 03:41:00,
2013-06-27 23:46:00,69.2,68.9,29.54,WNW,290,2.0,5.0,99,0.00,,-RA,1.05,VWS V14.01,2013-06-28 03:46:00,
2013-06-27 23:51:00,69.3,69.0,29.54,West,281,1.0,5.0,99,0.00,,-RA,1.05,VWS V14.01,2013-06-28 03:51:00,
2013-06-27 23:56:00,69.3,69.0,29.54,West,274,1.0,5.0,99,0.00,,-RA,1.05,VWS V14.01,2013-06-28 03:56:00,